sensor_id;sensor_type;location;lat;lon;timestamp;noise_LAeq;noise_LA_min;noise_LA_max;noise_LA01;noise_LA95
47109;Laerm;32856;51.422;6.794;2022-10-16T00:00:42;53.35;44.97;71.16;;
47109;Laerm;32856;51.422;6.794;2022-10-16T00:03:09;54.09;44.62;72.67;;
47109;Laerm;32856;51.422;6.794;2022-10-16T00:05:38;57.71;47.42;73.81;;
47109;Laerm;32856;51.422;6.794;2022-10-16T00:08:07;52.39;44.07;68.00;;
47109;Laerm;32856;51.422;6.794;2022-10-16T00:10:35;53.40;45.97;69.14;;
47109;Laerm;32856;51.422;6.794;2022-10-16T00:13:03;49.46;45.51;54.60;;
47109;Laerm;32856;51.422;6.794;2022-10-16T00:15:32;56.53;46.07;72.04;;
47109;Laerm;32856;51.422;6.794;2022-10-16T00:18:09;53.18;46.40;71.04;;
47109;Laerm;32856;51.422;6.794;2022-10-16T00:20:37;52.64;46.34;65.88;;
47109;Laerm;32856;51.422;6.794;2022-10-16T00:23:04;53.74;47.10;68.43;;
47109;Laerm;32856;51.422;6.794;2022-10-16T00:25:33;49.05;45.77;52.48;;
47109;Laerm;32856;51.422;6.794;2022-10-16T00:28:02;49.96;46.02;58.30;;
47109;Laerm;32856;51.422;6.794;2022-10-16T00:30:31;57.29;46.20;73.01;;
47109;Laerm;32856;51.422;6.794;2022-10-16T00:32:59;49.80;46.10;53.00;;
47109;Laerm;32856;51.422;6.794;2022-10-16T00:35:27;50.39;45.86;55.79;;
47109;Laerm;32856;51.422;6.794;2022-10-16T00:37:55;56.38;43.94;74.35;;
47109;Laerm;32856;51.422;6.794;2022-10-16T00:40:22;48.37;45.23;51.77;;
47109;Laerm;32856;51.422;6.794;2022-10-16T00:42:57;60.54;44.62;76.59;;
47109;Laerm;32856;51.422;6.794;2022-10-16T00:45:25;55.63;45.60;74.71;;
47109;Laerm;32856;51.422;6.794;2022-10-16T00:47:53;52.81;47.50;62.83;;
47109;Laerm;32856;51.422;6.794;2022-10-16T00:50:22;56.98;45.60;77.51;;
47109;Laerm;32856;51.422;6.794;2022-10-16T00:52:54;49.27;45.51;52.45;;
47109;Laerm;32856;51.422;6.794;2022-10-16T00:55:22;52.81;43.58;72.06;;
47109;Laerm;32856;51.422;6.794;2022-10-16T00:57:50;50.97;46.18;65.34;;
47109;Laerm;32856;51.422;6.794;2022-10-16T01:00:20;55.79;45.17;77.18;;
47109;Laerm;32856;51.422;6.794;2022-10-16T01:02:51;53.02;45.70;69.00;;
47109;Laerm;32856;51.422;6.794;2022-10-16T01:05:20;49.92;46.20;52.65;;
47109;Laerm;32856;51.422;6.794;2022-10-16T01:07:51;49.10;45.77;55.69;;
47109;Laerm;32856;51.422;6.794;2022-10-16T01:10:27;50.17;45.96;57.38;;
47109;Laerm;32856;51.422;6.794;2022-10-16T01:12:59;49.45;45.17;52.93;;
47109;Laerm;32856;51.422;6.794;2022-10-16T01:15:37;49.13;45.33;53.27;;
47109;Laerm;32856;51.422;6.794;2022-10-16T01:18:05;51.59;46.45;56.59;;
47109;Laerm;32856;51.422;6.794;2022-10-16T01:20:37;48.82;44.87;53.19;;
47109;Laerm;32856;51.422;6.794;2022-10-16T01:23:09;51.59;47.16;57.46;;
47109;Laerm;32856;51.422;6.794;2022-10-16T01:25:48;50.10;45.94;55.95;;
47109;Laerm;32856;51.422;6.794;2022-10-16T01:28:18;52.58;44.43;70.24;;
47109;Laerm;32856;51.422;6.794;2022-10-16T01:30:48;51.82;44.65;56.65;;
47109;Laerm;32856;51.422;6.794;2022-10-16T01:33:18;50.97;45.42;56.30;;
47109;Laerm;32856;51.422;6.794;2022-10-16T01:35:48;50.67;44.58;55.61;;
47109;Laerm;32856;51.422;6.794;2022-10-16T01:38:20;50.51;46.30;55.08;;
47109;Laerm;32856;51.422;6.794;2022-10-16T01:40:50;54.78;44.87;73.79;;
47109;Laerm;32856;51.422;6.794;2022-10-16T01:43:20;59.77;44.58;78.51;;
47109;Laerm;32856;51.422;6.794;2022-10-16T01:45:49;48.47;44.87;52.27;;
47109;Laerm;32856;51.422;6.794;2022-10-16T01:48:18;57.91;45.23;73.76;;
47109;Laerm;32856;51.422;6.794;2022-10-16T01:50:55;47.03;43.68;51.34;;
47109;Laerm;32856;51.422;6.794;2022-10-16T01:53:24;50.55;45.48;67.01;;
47109;Laerm;32856;51.422;6.794;2022-10-16T01:55:53;48.61;45.07;51.95;;
47109;Laerm;32856;51.422;6.794;2022-10-16T01:58:24;50.14;45.60;53.88;;
47109;Laerm;32856;51.422;6.794;2022-10-16T02:00:55;55.93;45.39;75.28;;
47109;Laerm;32856;51.422;6.794;2022-10-16T02:03:26;48.58;44.76;54.13;;
47109;Laerm;32856;51.422;6.794;2022-10-16T02:05:54;49.61;44.94;56.50;;
47109;Laerm;32856;51.422;6.794;2022-10-16T02:08:23;49.80;43.58;57.91;;
47109;Laerm;32856;51.422;6.794;2022-10-16T02:10:52;50.01;46.59;53.82;;
47109;Laerm;32856;51.422;6.794;2022-10-16T02:13:21;52.52;43.49;69.31;;
47109;Laerm;32856;51.422;6.794;2022-10-16T02:15:51;47.45;43.29;51.77;;
47109;Laerm;32856;51.422;6.794;2022-10-16T02:18:18;50.30;45.20;57.02;;
47109;Laerm;32856;51.422;6.794;2022-10-16T02:20:48;55.72;44.90;74.78;;
47109;Laerm;32856;51.422;6.794;2022-10-16T02:23:35;51.22;45.80;60.30;;
47109;Laerm;32856;51.422;6.794;2022-10-16T02:26:06;50.71;45.86;72.31;;
47109;Laerm;32856;51.422;6.794;2022-10-16T02:28:37;50.11;45.36;57.62;;
47109;Laerm;32856;51.422;6.794;2022-10-16T02:31:09;55.85;45.94;74.03;;
47109;Laerm;32856;51.422;6.794;2022-10-16T02:33:44;49.35;44.76;54.01;;
47109;Laerm;32856;51.422;6.794;2022-10-16T02:36:13;56.43;44.54;75.03;;
47109;Laerm;32856;51.422;6.794;2022-10-16T02:38:40;49.29;45.54;54.48;;
47109;Laerm;32856;51.422;6.794;2022-10-16T02:41:08;53.97;44.23;73.42;;
47109;Laerm;32856;51.422;6.794;2022-10-16T02:43:36;48.83;45.80;52.25;;
47109;Laerm;32856;51.422;6.794;2022-10-16T02:46:03;56.25;44.43;75.56;;
47109;Laerm;32856;51.422;6.794;2022-10-16T02:48:32;53.57;45.01;71.18;;
47109;Laerm;32856;51.422;6.794;2022-10-16T02:51:01;49.92;44.51;54.86;;
47109;Laerm;32856;51.422;6.794;2022-10-16T02:53:28;51.67;46.22;66.94;;
47109;Laerm;32856;51.422;6.794;2022-10-16T02:55:56;50.83;43.94;61.49;;
47109;Laerm;32856;51.422;6.794;2022-10-16T02:58:23;48.00;43.99;52.28;;
47109;Laerm;32856;51.422;6.794;2022-10-16T03:00:50;49.74;45.54;54.12;;
47109;Laerm;32856;51.422;6.794;2022-10-16T03:03:18;55.79;46.35;71.40;;
47109;Laerm;32856;51.422;6.794;2022-10-16T03:05:47;56.42;45.51;75.43;;
47109;Laerm;32856;51.422;6.794;2022-10-16T03:08:14;49.89;45.30;60.88;;
47109;Laerm;32856;51.422;6.794;2022-10-16T03:10:42;55.16;45.01;73.66;;
47109;Laerm;32856;51.422;6.794;2022-10-16T03:13:09;49.61;45.63;58.77;;
47109;Laerm;32856;51.422;6.794;2022-10-16T03:15:37;49.82;45.66;60.20;;
47109;Laerm;32856;51.422;6.794;2022-10-16T03:18:04;49.55;44.69;59.25;;
47109;Laerm;32856;51.422;6.794;2022-10-16T03:20:32;49.29;43.68;59.26;;
47109;Laerm;32856;51.422;6.794;2022-10-16T03:23:07;52.18;46.33;74.66;;
47109;Laerm;32856;51.422;6.794;2022-10-16T03:25:34;48.67;43.58;57.97;;
47109;Laerm;32856;51.422;6.794;2022-10-16T03:28:02;55.90;47.16;72.47;;
47109;Laerm;32856;51.422;6.794;2022-10-16T03:30:30;50.03;45.91;62.85;;
47109;Laerm;32856;51.422;6.794;2022-10-16T03:32:57;54.37;45.14;72.52;;
47109;Laerm;32856;51.422;6.794;2022-10-16T03:35:25;49.47;45.42;59.84;;
47109;Laerm;32856;51.422;6.794;2022-10-16T03:37:52;59.61;46.45;77.23;;
47109;Laerm;32856;51.422;6.794;2022-10-16T03:40:21;57.73;45.01;73.18;;
47109;Laerm;32856;51.422;6.794;2022-10-16T03:42:49;49.80;45.77;56.77;;
47109;Laerm;32856;51.422;6.794;2022-10-16T03:45:16;50.85;46.07;62.72;;
47109;Laerm;32856;51.422;6.794;2022-10-16T03:47:44;52.63;47.63;60.75;;
47109;Laerm;32856;51.422;6.794;2022-10-16T03:50:13;55.64;45.69;76.08;;
47109;Laerm;32856;51.422;6.794;2022-10-16T03:52:43;49.54;45.69;65.57;;
47109;Laerm;32856;51.422;6.794;2022-10-16T03:55:11;53.97;44.54;71.25;;
47109;Laerm;32856;51.422;6.794;2022-10-16T03:57:40;51.04;46.43;65.01;;
47109;Laerm;32856;51.422;6.794;2022-10-16T04:00:08;50.53;46.05;59.95;;
47109;Laerm;32856;51.422;6.794;2022-10-16T04:02:36;49.42;44.83;59.58;;
47109;Laerm;32856;51.422;6.794;2022-10-16T04:05:03;48.26;43.89;61.22;;
47109;Laerm;32856;51.422;6.794;2022-10-16T04:07:32;54.91;44.73;72.73;;
47109;Laerm;32856;51.422;6.794;2022-10-16T04:10:00;50.60;47.04;64.73;;
47109;Laerm;32856;51.422;6.794;2022-10-16T04:12:28;50.56;46.59;60.93;;
47109;Laerm;32856;51.422;6.794;2022-10-16T04:14:57;50.29;45.36;64.45;;
47109;Laerm;32856;51.422;6.794;2022-10-16T04:17:24;50.03;45.54;64.18;;
47109;Laerm;32856;51.422;6.794;2022-10-16T04:19:52;49.44;45.07;60.63;;
47109;Laerm;32856;51.422;6.794;2022-10-16T04:22:19;50.63;45.51;65.56;;
47109;Laerm;32856;51.422;6.794;2022-10-16T04:24:56;53.16;44.90;69.88;;
47109;Laerm;32856;51.422;6.794;2022-10-16T04:27:24;57.70;44.76;75.60;;
47109;Laerm;32856;51.422;6.794;2022-10-16T04:29:51;53.93;43.86;72.88;;
47109;Laerm;32856;51.422;6.794;2022-10-16T04:32:23;54.77;46.23;72.45;;
47109;Laerm;32856;51.422;6.794;2022-10-16T04:34:54;53.36;45.97;72.25;;
47109;Laerm;32856;51.422;6.794;2022-10-16T04:37:42;55.57;44.23;74.84;;
47109;Laerm;32856;51.422;6.794;2022-10-16T04:40:09;50.80;46.89;56.62;;
47109;Laerm;32856;51.422;6.794;2022-10-16T04:42:37;54.24;47.26;69.54;;
47109;Laerm;32856;51.422;6.794;2022-10-16T04:45:05;57.72;46.91;76.52;;
47109;Laerm;32856;51.422;6.794;2022-10-16T04:47:36;49.82;45.94;53.12;;
47109;Laerm;32856;51.422;6.794;2022-10-16T04:50:04;54.13;46.69;72.15;;
47109;Laerm;32856;51.422;6.794;2022-10-16T04:52:32;51.40;46.02;57.40;;
47109;Laerm;32856;51.422;6.794;2022-10-16T04:54:59;51.02;46.35;56.82;;
47109;Laerm;32856;51.422;6.794;2022-10-16T04:57:28;49.26;45.75;53.61;;
47109;Laerm;32856;51.422;6.794;2022-10-16T04:59:56;48.73;45.17;52.63;;
47109;Laerm;32856;51.422;6.794;2022-10-16T05:02:24;49.99;46.23;53.37;;
47109;Laerm;32856;51.422;6.794;2022-10-16T05:04:53;56.02;46.18;72.09;;
47109;Laerm;32856;51.422;6.794;2022-10-16T05:07:21;56.10;46.15;75.19;;
47109;Laerm;32856;51.422;6.794;2022-10-16T05:09:48;55.51;46.66;73.92;;
47109;Laerm;32856;51.422;6.794;2022-10-16T05:12:16;51.14;47.46;55.87;;
47109;Laerm;32856;51.422;6.794;2022-10-16T05:14:44;51.47;46.93;55.58;;
47109;Laerm;32856;51.422;6.794;2022-10-16T05:17:11;55.86;47.30;72.26;;
47109;Laerm;32856;51.422;6.794;2022-10-16T05:19:39;55.12;46.20;71.21;;
47109;Laerm;32856;51.422;6.794;2022-10-16T05:22:08;54.75;46.80;71.17;;
47109;Laerm;32856;51.422;6.794;2022-10-16T05:24:35;49.96;45.04;53.56;;
47109;Laerm;32856;51.422;6.794;2022-10-16T05:27:03;50.72;46.18;53.86;;
47109;Laerm;32856;51.422;6.794;2022-10-16T05:29:30;53.93;45.11;72.02;;
47109;Laerm;32856;51.422;6.794;2022-10-16T05:31:58;53.75;47.20;67.73;;
47109;Laerm;32856;51.422;6.794;2022-10-16T05:34:25;54.60;48.12;71.51;;
47109;Laerm;32856;51.422;6.794;2022-10-16T05:36:53;50.66;46.82;53.68;;
47109;Laerm;32856;51.422;6.794;2022-10-16T05:39:22;50.28;46.38;54.34;;
47109;Laerm;32856;51.422;6.794;2022-10-16T05:41:49;52.52;46.73;67.26;;
47109;Laerm;32856;51.422;6.794;2022-10-16T05:44:18;50.99;46.33;58.62;;
47109;Laerm;32856;51.422;6.794;2022-10-16T05:46:51;51.29;45.60;56.92;;
47109;Laerm;32856;51.422;6.794;2022-10-16T05:49:19;57.00;47.84;76.57;;
47109;Laerm;32856;51.422;6.794;2022-10-16T05:51:46;57.14;48.26;71.61;;
47109;Laerm;32856;51.422;6.794;2022-10-16T05:54:14;51.12;47.40;56.07;;
47109;Laerm;32856;51.422;6.794;2022-10-16T05:56:43;52.01;48.83;58.73;;
47109;Laerm;32856;51.422;6.794;2022-10-16T05:59:10;52.71;47.44;59.96;;
47109;Laerm;32856;51.422;6.794;2022-10-16T06:01:38;58.51;47.46;75.28;;
47109;Laerm;32856;51.422;6.794;2022-10-16T06:04:05;54.23;47.10;69.57;;
47109;Laerm;32856;51.422;6.794;2022-10-16T06:06:32;60.66;47.83;76.87;;
47109;Laerm;32856;51.422;6.794;2022-10-16T06:09:02;52.77;46.40;69.53;;
47109;Laerm;32856;51.422;6.794;2022-10-16T06:11:31;56.96;48.48;73.29;;
47109;Laerm;32856;51.422;6.794;2022-10-16T06:14:00;58.01;46.89;75.42;;
47109;Laerm;32856;51.422;6.794;2022-10-16T06:16:32;58.93;48.18;75.57;;
47109;Laerm;32856;51.422;6.794;2022-10-16T06:19:00;53.49;46.66;67.27;;
47109;Laerm;32856;51.422;6.794;2022-10-16T06:21:28;60.47;48.74;74.19;;
47109;Laerm;32856;51.422;6.794;2022-10-16T06:23:56;54.62;47.65;71.23;;
47109;Laerm;32856;51.422;6.794;2022-10-16T06:26:31;58.10;49.50;73.98;;
47109;Laerm;32856;51.422;6.794;2022-10-16T06:29:00;59.27;49.52;75.46;;
47109;Laerm;32856;51.422;6.794;2022-10-16T06:31:28;59.25;50.03;76.56;;
47109;Laerm;32856;51.422;6.794;2022-10-16T06:33:57;58.51;48.29;75.02;;
47109;Laerm;32856;51.422;6.794;2022-10-16T06:36:25;55.65;48.43;72.49;;
47109;Laerm;32856;51.422;6.794;2022-10-16T06:38:52;58.73;48.64;75.56;;
47109;Laerm;32856;51.422;6.794;2022-10-16T06:41:21;61.14;48.34;78.70;;
47109;Laerm;32856;51.422;6.794;2022-10-16T06:43:49;56.04;49.20;74.56;;
47109;Laerm;32856;51.422;6.794;2022-10-16T06:46:19;57.24;50.03;71.52;;
47109;Laerm;32856;51.422;6.794;2022-10-16T06:48:46;56.66;49.24;71.51;;
47109;Laerm;32856;51.422;6.794;2022-10-16T06:51:14;60.24;50.55;76.11;;
47109;Laerm;32856;51.422;6.794;2022-10-16T06:53:43;60.45;47.96;74.16;;
47109;Laerm;32856;51.422;6.794;2022-10-16T06:56:27;57.56;48.57;73.32;;
47109;Laerm;32856;51.422;6.794;2022-10-16T06:59:07;53.54;48.63;64.75;;
47109;Laerm;32856;51.422;6.794;2022-10-16T07:01:50;59.69;48.76;74.16;;
47109;Laerm;32856;51.422;6.794;2022-10-16T07:04:19;57.50;49.24;72.80;;
47109;Laerm;32856;51.422;6.794;2022-10-16T07:06:48;58.63;49.81;73.27;;
47109;Laerm;32856;51.422;6.794;2022-10-16T07:09:16;63.61;49.15;80.69;;
47109;Laerm;32856;51.422;6.794;2022-10-16T07:11:43;57.15;50.24;72.82;;
47109;Laerm;32856;51.422;6.794;2022-10-16T07:14:12;59.36;48.32;74.96;;
47109;Laerm;32856;51.422;6.794;2022-10-16T07:16:42;60.54;49.93;75.31;;
47109;Laerm;32856;51.422;6.794;2022-10-16T07:19:10;52.41;48.98;55.49;;
47109;Laerm;32856;51.422;6.794;2022-10-16T07:21:41;61.28;49.41;76.78;;
47109;Laerm;32856;51.422;6.794;2022-10-16T07:24:11;63.81;49.64;79.12;;
47109;Laerm;32856;51.422;6.794;2022-10-16T07:26:39;58.70;50.04;73.82;;
47109;Laerm;32856;51.422;6.794;2022-10-16T07:29:11;59.92;50.34;73.74;;
47109;Laerm;32856;51.422;6.794;2022-10-16T07:31:40;59.85;51.17;76.58;;
47109;Laerm;32856;51.422;6.794;2022-10-16T07:34:08;62.36;48.49;74.64;;
47109;Laerm;32856;51.422;6.794;2022-10-16T07:36:36;61.31;50.17;78.88;;
47109;Laerm;32856;51.422;6.794;2022-10-16T07:39:04;60.54;49.58;73.32;;
47109;Laerm;32856;51.422;6.794;2022-10-16T07:41:32;62.55;50.46;76.87;;
47109;Laerm;32856;51.422;6.794;2022-10-16T07:44:03;58.71;49.80;72.27;;
47109;Laerm;32856;51.422;6.794;2022-10-16T07:46:30;61.09;50.17;80.55;;
47109;Laerm;32856;51.422;6.794;2022-10-16T07:48:59;60.47;51.02;75.01;;
47109;Laerm;32856;51.422;6.794;2022-10-16T07:51:27;63.58;50.45;76.72;;
47109;Laerm;32856;51.422;6.794;2022-10-16T07:53:56;63.18;49.56;78.13;;
47109;Laerm;32856;51.422;6.794;2022-10-16T07:56:23;60.09;50.00;73.84;;
47109;Laerm;32856;51.422;6.794;2022-10-16T07:58:51;61.65;50.73;75.24;;
47109;Laerm;32856;51.422;6.794;2022-10-16T08:01:19;61.98;50.67;79.25;;
47109;Laerm;32856;51.422;6.794;2022-10-16T08:03:47;60.81;50.02;75.55;;
47109;Laerm;32856;51.422;6.794;2022-10-16T08:06:18;62.70;50.10;77.68;;
47109;Laerm;32856;51.422;6.794;2022-10-16T08:08:48;60.76;51.06;74.91;;
47109;Laerm;32856;51.422;6.794;2022-10-16T08:11:25;64.58;50.92;79.87;;
47109;Laerm;32856;51.422;6.794;2022-10-16T08:13:52;63.86;49.35;76.39;;
47109;Laerm;32856;51.422;6.794;2022-10-16T08:16:20;59.25;50.68;72.50;;
47109;Laerm;32856;51.422;6.794;2022-10-16T08:18:48;64.02;48.54;75.24;;
47109;Laerm;32856;51.422;6.794;2022-10-16T08:21:18;62.88;51.00;73.26;;
47109;Laerm;32856;51.422;6.794;2022-10-16T08:23:47;63.24;50.55;74.85;;
47109;Laerm;32856;51.422;6.794;2022-10-16T08:26:17;62.06;51.03;73.78;;
47109;Laerm;32856;51.422;6.794;2022-10-16T08:28:46;65.65;51.31;77.96;;
47109;Laerm;32856;51.422;6.794;2022-10-16T08:31:16;63.80;51.92;76.20;;
47109;Laerm;32856;51.422;6.794;2022-10-16T08:33:54;62.54;50.62;76.96;;
47109;Laerm;32856;51.422;6.794;2022-10-16T08:36:21;64.56;49.72;80.84;;
47109;Laerm;32856;51.422;6.794;2022-10-16T08:38:49;63.51;50.23;78.68;;
47109;Laerm;32856;51.422;6.794;2022-10-16T08:44:12;63.10;48.47;75.99;;
47109;Laerm;32856;51.422;6.794;2022-10-16T08:46:45;61.27;49.12;75.50;;
47109;Laerm;32856;51.422;6.794;2022-10-16T08:49:16;64.10;50.10;75.29;;
47109;Laerm;32856;51.422;6.794;2022-10-16T08:51:44;62.15;49.10;76.18;;
47109;Laerm;32856;51.422;6.794;2022-10-16T08:54:21;65.15;49.96;79.94;;
47109;Laerm;32856;51.422;6.794;2022-10-16T08:56:50;60.28;48.76;74.84;;
47109;Laerm;32856;51.422;6.794;2022-10-16T08:59:23;65.38;49.82;79.37;;
47109;Laerm;32856;51.422;6.794;2022-10-16T09:01:51;60.79;50.92;77.24;;
47109;Laerm;32856;51.422;6.794;2022-10-16T09:04:42;64.14;49.58;76.22;;
47109;Laerm;32856;51.422;6.794;2022-10-16T09:07:26;65.36;51.15;81.47;;
47109;Laerm;32856;51.422;6.794;2022-10-16T09:10:00;62.66;49.95;74.62;;
47109;Laerm;32856;51.422;6.794;2022-10-16T09:12:31;61.19;50.49;76.66;;
47109;Laerm;32856;51.422;6.794;2022-10-16T09:15:05;63.33;51.80;74.56;;
47109;Laerm;32856;51.422;6.794;2022-10-16T09:17:37;67.27;51.59;83.16;;
47109;Laerm;32856;51.422;6.794;2022-10-16T09:20:18;63.62;52.12;75.76;;
47109;Laerm;32856;51.422;6.794;2022-10-16T09:22:46;64.49;50.94;75.07;;
47109;Laerm;32856;51.422;6.794;2022-10-16T09:25:14;64.10;50.98;74.53;;
47109;Laerm;32856;51.422;6.794;2022-10-16T09:27:45;65.18;51.82;75.26;;
47109;Laerm;32856;51.422;6.794;2022-10-16T09:30:16;63.99;51.31;75.98;;
47109;Laerm;32856;51.422;6.794;2022-10-16T09:32:46;64.16;50.90;88.60;;
47109;Laerm;32856;51.422;6.794;2022-10-16T09:35:15;64.03;51.22;75.56;;
47109;Laerm;32856;51.422;6.794;2022-10-16T09:37:45;61.83;50.27;73.48;;
47109;Laerm;32856;51.422;6.794;2022-10-16T09:40:23;62.54;50.79;74.42;;
47109;Laerm;32856;51.422;6.794;2022-10-16T09:42:52;64.10;52.31;78.55;;
47109;Laerm;32856;51.422;6.794;2022-10-16T09:45:23;63.13;51.33;75.24;;
47109;Laerm;32856;51.422;6.794;2022-10-16T09:47:51;62.88;50.23;75.43;;
47109;Laerm;32856;51.422;6.794;2022-10-16T09:50:22;65.23;50.50;80.37;;
47109;Laerm;32856;51.422;6.794;2022-10-16T09:53:05;65.25;48.77;80.14;;
47109;Laerm;32856;51.422;6.794;2022-10-16T09:55:36;65.55;50.95;82.21;;
47109;Laerm;32856;51.422;6.794;2022-10-16T09:58:28;65.53;50.68;81.53;;
47109;Laerm;32856;51.422;6.794;2022-10-16T10:01:00;64.98;49.47;75.60;;
47109;Laerm;32856;51.422;6.794;2022-10-16T10:03:35;65.08;50.92;84.25;;
47109;Laerm;32856;51.422;6.794;2022-10-16T10:06:06;61.31;50.40;74.70;;
47109;Laerm;32856;51.422;6.794;2022-10-16T10:08:34;63.33;50.62;75.26;;
47109;Laerm;32856;51.422;6.794;2022-10-16T10:11:01;61.06;50.97;73.73;;
47109;Laerm;32856;51.422;6.794;2022-10-16T10:13:30;62.98;50.20;75.42;;
47109;Laerm;32856;51.422;6.794;2022-10-16T10:15:58;62.70;48.96;77.71;;
47109;Laerm;32856;51.422;6.794;2022-10-16T10:18:36;62.58;50.37;75.15;;
47109;Laerm;32856;51.422;6.794;2022-10-16T10:21:03;62.66;50.14;78.80;;
47109;Laerm;32856;51.422;6.794;2022-10-16T10:23:32;64.39;49.90;77.44;;
47109;Laerm;32856;51.422;6.794;2022-10-16T10:26:01;59.94;49.41;73.49;;
47109;Laerm;32856;51.422;6.794;2022-10-16T10:28:42;63.57;49.29;75.06;;
47109;Laerm;32856;51.422;6.794;2022-10-16T10:31:24;62.70;48.73;74.92;;
47109;Laerm;32856;51.422;6.794;2022-10-16T10:33:57;62.74;50.48;74.99;;
47109;Laerm;32856;51.422;6.794;2022-10-16T10:36:29;64.79;49.60;79.70;;
47109;Laerm;32856;51.422;6.794;2022-10-16T10:38:58;67.07;51.06;82.12;;
47109;Laerm;32856;51.422;6.794;2022-10-16T10:41:44;60.80;48.90;73.80;;
47109;Laerm;32856;51.422;6.794;2022-10-16T10:44:23;62.55;48.42;78.13;;
47109;Laerm;32856;51.422;6.794;2022-10-16T10:46:55;62.85;49.02;78.29;;
47109;Laerm;32856;51.422;6.794;2022-10-16T10:49:34;62.65;49.79;77.21;;
47109;Laerm;32856;51.422;6.794;2022-10-16T10:52:08;64.52;50.09;75.03;;
47109;Laerm;32856;51.422;6.794;2022-10-16T10:54:40;63.06;50.17;74.32;;
47109;Laerm;32856;51.422;6.794;2022-10-16T10:57:09;65.70;50.34;83.76;;
47109;Laerm;32856;51.422;6.794;2022-10-16T10:59:41;66.35;50.33;81.48;;
47109;Laerm;32856;51.422;6.794;2022-10-16T11:02:18;62.91;48.69;77.50;;
47109;Laerm;32856;51.422;6.794;2022-10-16T11:04:53;63.34;50.31;74.09;;
47109;Laerm;32856;51.422;6.794;2022-10-16T11:07:25;62.36;49.06;75.93;;
47109;Laerm;32856;51.422;6.794;2022-10-16T11:09:56;65.70;49.32;79.05;;
47109;Laerm;32856;51.422;6.794;2022-10-16T11:12:25;66.48;50.01;86.50;;
47109;Laerm;32856;51.422;6.794;2022-10-16T11:14:56;64.37;49.75;76.16;;
47109;Laerm;32856;51.422;6.794;2022-10-16T11:17:26;63.66;48.55;77.81;;
47109;Laerm;32856;51.422;6.794;2022-10-16T11:19:58;63.56;48.58;76.23;;
47109;Laerm;32856;51.422;6.794;2022-10-16T11:22:28;63.38;49.14;74.44;;
47109;Laerm;32856;51.422;6.794;2022-10-16T11:24:59;65.32;50.12;76.36;;
47109;Laerm;32856;51.422;6.794;2022-10-16T11:27:33;64.28;49.83;81.28;;
47109;Laerm;32856;51.422;6.794;2022-10-16T11:30:02;62.46;50.04;75.76;;
47109;Laerm;32856;51.422;6.794;2022-10-16T11:32:35;64.12;49.51;77.33;;
47109;Laerm;32856;51.422;6.794;2022-10-16T11:35:11;62.81;50.29;76.28;;
47109;Laerm;32856;51.422;6.794;2022-10-16T11:37:45;63.48;48.84;78.85;;
47109;Laerm;32856;51.422;6.794;2022-10-16T11:40:19;64.93;50.33;77.56;;
47109;Laerm;32856;51.422;6.794;2022-10-16T11:42:57;62.91;50.77;79.02;;
47109;Laerm;32856;51.422;6.794;2022-10-16T11:45:28;66.04;51.10;77.50;;
47109;Laerm;32856;51.422;6.794;2022-10-16T11:47:59;62.12;49.03;74.49;;
47109;Laerm;32856;51.422;6.794;2022-10-16T11:50:31;63.75;50.87;75.02;;
47109;Laerm;32856;51.422;6.794;2022-10-16T11:53:01;63.27;50.18;74.17;;
47109;Laerm;32856;51.422;6.794;2022-10-16T11:55:34;63.20;49.82;76.38;;
47109;Laerm;32856;51.422;6.794;2022-10-16T11:58:05;66.08;50.04;80.80;;
47109;Laerm;32856;51.422;6.794;2022-10-16T12:00:36;63.71;49.80;74.89;;
47109;Laerm;32856;51.422;6.794;2022-10-16T12:03:10;63.69;49.38;82.30;;
47109;Laerm;32856;51.422;6.794;2022-10-16T12:05:50;61.24;48.99;72.72;;
47109;Laerm;32856;51.422;6.794;2022-10-16T12:08:20;64.63;50.02;80.25;;
47109;Laerm;32856;51.422;6.794;2022-10-16T12:10:48;62.58;49.77;75.20;;
47109;Laerm;32856;51.422;6.794;2022-10-16T12:13:28;66.13;49.80;80.45;;
47109;Laerm;32856;51.422;6.794;2022-10-16T12:16:03;62.12;49.21;74.25;;
47109;Laerm;32856;51.422;6.794;2022-10-16T12:18:31;64.39;49.83;75.52;;
47109;Laerm;32856;51.422;6.794;2022-10-16T12:21:00;66.75;48.18;82.55;;
47109;Laerm;32856;51.422;6.794;2022-10-16T12:23:32;63.46;48.49;74.36;;
47109;Laerm;32856;51.422;6.794;2022-10-16T12:26:06;64.52;50.11;77.02;;
47109;Laerm;32856;51.422;6.794;2022-10-16T12:28:33;63.28;49.04;74.96;;
47109;Laerm;32856;51.422;6.794;2022-10-16T12:31:02;64.96;48.80;76.98;;
47109;Laerm;32856;51.422;6.794;2022-10-16T12:33:31;63.35;49.62;75.29;;
47109;Laerm;32856;51.422;6.794;2022-10-16T12:36:02;64.27;48.74;77.26;;
47109;Laerm;32856;51.422;6.794;2022-10-16T12:38:35;61.75;48.51;75.91;;
47109;Laerm;32856;51.422;6.794;2022-10-16T12:41:05;64.91;50.86;77.22;;
47109;Laerm;32856;51.422;6.794;2022-10-16T12:43:35;63.24;49.36;75.20;;
47109;Laerm;32856;51.422;6.794;2022-10-16T12:46:05;64.35;50.39;77.61;;
47109;Laerm;32856;51.422;6.794;2022-10-16T12:48:33;63.69;49.35;74.54;;
47109;Laerm;32856;51.422;6.794;2022-10-16T12:51:12;68.67;49.65;86.88;;
47109;Laerm;32856;51.422;6.794;2022-10-16T12:53:57;63.67;50.26;73.99;;
47109;Laerm;32856;51.422;6.794;2022-10-16T12:56:26;63.97;49.58;76.39;;
47109;Laerm;32856;51.422;6.794;2022-10-16T12:59:02;59.93;48.02;74.16;;
47109;Laerm;32856;51.422;6.794;2022-10-16T13:01:34;63.83;51.66;74.18;;
47109;Laerm;32856;51.422;6.794;2022-10-16T13:06:53;63.27;49.82;74.75;;
47109;Laerm;32856;51.422;6.794;2022-10-16T13:09:27;63.10;49.57;76.26;;
47109;Laerm;32856;51.422;6.794;2022-10-16T13:12:01;63.43;50.28;74.02;;
47109;Laerm;32856;51.422;6.794;2022-10-16T13:14:37;65.53;50.26;75.38;;
47109;Laerm;32856;51.422;6.794;2022-10-16T13:17:11;66.74;51.14;76.77;;
47109;Laerm;32856;51.422;6.794;2022-10-16T13:19:44;62.41;50.83;73.88;;
47109;Laerm;32856;51.422;6.794;2022-10-16T13:22:18;63.28;49.03;76.16;;
47109;Laerm;32856;51.422;6.794;2022-10-16T13:24:52;65.69;50.53;79.86;;
47109;Laerm;32856;51.422;6.794;2022-10-16T13:27:26;61.96;50.27;78.52;;
47109;Laerm;32856;51.422;6.794;2022-10-16T13:30:00;63.49;50.96;73.42;;
47109;Laerm;32856;51.422;6.794;2022-10-16T13:32:28;61.01;50.23;73.92;;
47109;Laerm;32856;51.422;6.794;2022-10-16T13:34:56;63.09;49.75;74.38;;
47109;Laerm;32856;51.422;6.794;2022-10-16T13:37:25;63.78;52.08;80.00;;
47109;Laerm;32856;51.422;6.794;2022-10-16T13:40:02;63.23;50.85;79.18;;
47109;Laerm;32856;51.422;6.794;2022-10-16T13:42:29;66.08;50.12;86.35;;
47109;Laerm;32856;51.422;6.794;2022-10-16T13:44:57;60.97;50.27;74.23;;
47109;Laerm;32856;51.422;6.794;2022-10-16T13:47:25;60.97;50.98;72.03;;
47109;Laerm;32856;51.422;6.794;2022-10-16T13:50:00;64.06;50.48;75.48;;
47109;Laerm;32856;51.422;6.794;2022-10-16T13:52:30;63.62;49.85;77.19;;
47109;Laerm;32856;51.422;6.794;2022-10-16T13:54:57;64.99;51.10;81.16;;
47109;Laerm;32856;51.422;6.794;2022-10-16T13:57:26;62.92;49.69;74.67;;
47109;Laerm;32856;51.422;6.794;2022-10-16T13:59:54;66.19;50.72;82.47;;
47109;Laerm;32856;51.422;6.794;2022-10-16T14:02:22;62.66;49.24;77.67;;
47109;Laerm;32856;51.422;6.794;2022-10-16T14:04:52;59.88;50.03;72.45;;
47109;Laerm;32856;51.422;6.794;2022-10-16T14:07:23;62.50;49.85;77.18;;